CA-0441 weather

CLOSED Edmonton / St. Albert
St. Albert, Alberta, Canada

Public forecast

Using degrees Celsius for public forecast. Weather courtesy of forecast.io.

METAR (pilot weather report)

Closest report is Edmonton / Villeneuve Airport, 5.9 nm (10.9 km) WSW. Retrieved 2019/07/20 15:00 UTC (32 minutes ago):

CZVL 201500Z AUTO 32009KT 9SM BKN048 BKN055 15/13 A3009 RMK SLP196 DENSITY ALT 2500FT

TAF (pilot weather forecast)

Closest forecast is Edmonton / Villeneuve Airport, 5.9 nm (10.9 km) WSW. Retrieved 2019/07/20 12:00 UTC (4 hours ago):

TAF CZVL 201149Z 2012/2024 32008KT P6SM FEW008 BKN025 BKN100 TEMPO 2012/2015 5SM BR BKN008 OVC025 FM201500 31008KT P6SM SCT020 BKN060 TEMPO 2015/2018 P6SM -SHRA BKN020 BKN060 FM201800 VRB03KT P6SM VCSH BKN040 RMK FCST BASED ON AUTO OBS. NXT FCST BY 201800Z